sensor_id;sensor_type;location;lat;lon;timestamp;P1;durP1;ratioP1;P2;durP2;ratioP2
76852;SDS011;65825;52.232;10.566;2023-02-03T00:01:00;10.40;;;6.00;;
76852;SDS011;65825;52.232;10.566;2023-02-03T00:03:26;13.50;;;6.77;;
76852;SDS011;65825;52.232;10.566;2023-02-03T00:05:51;14.05;;;6.25;;
76852;SDS011;65825;52.232;10.566;2023-02-03T00:08:17;14.18;;;6.53;;
76852;SDS011;65825;52.232;10.566;2023-02-03T00:10:44;17.17;;;7.68;;
76852;SDS011;65825;52.232;10.566;2023-02-03T00:13:10;16.40;;;6.55;;
76852;SDS011;65825;52.232;10.566;2023-02-03T00:15:35;15.88;;;7.65;;
76852;SDS011;65825;52.232;10.566;2023-02-03T00:18:01;15.90;;;7.78;;
76852;SDS011;65825;52.232;10.566;2023-02-03T00:20:26;17.20;;;7.60;;
76852;SDS011;65825;52.232;10.566;2023-02-03T00:22:51;18.17;;;7.65;;
76852;SDS011;65825;52.232;10.566;2023-02-03T00:25:17;16.05;;;8.02;;
76852;SDS011;65825;52.232;10.566;2023-02-03T00:27:42;13.23;;;7.03;;
76852;SDS011;65825;52.232;10.566;2023-02-03T00:30:08;18.92;;;8.57;;
76852;SDS011;65825;52.232;10.566;2023-02-03T00:32:35;14.38;;;7.10;;
76852;SDS011;65825;52.232;10.566;2023-02-03T00:35:00;16.37;;;7.50;;
76852;SDS011;65825;52.232;10.566;2023-02-03T00:37:25;15.77;;;8.50;;
76852;SDS011;65825;52.232;10.566;2023-02-03T00:39:50;12.00;;;6.47;;
76852;SDS011;65825;52.232;10.566;2023-02-03T00:42:16;15.10;;;7.70;;
76852;SDS011;65825;52.232;10.566;2023-02-03T00:44:41;14.17;;;7.37;;
76852;SDS011;65825;52.232;10.566;2023-02-03T00:47:06;16.57;;;8.43;;
76852;SDS011;65825;52.232;10.566;2023-02-03T00:49:32;17.57;;;8.70;;
76852;SDS011;65825;52.232;10.566;2023-02-03T00:51:57;15.70;;;7.77;;
76852;SDS011;65825;52.232;10.566;2023-02-03T00:54:22;13.07;;;6.80;;
76852;SDS011;65825;52.232;10.566;2023-02-03T00:56:47;17.00;;;7.90;;
76852;SDS011;65825;52.232;10.566;2023-02-03T00:59:12;15.20;;;7.20;;
76852;SDS011;65825;52.232;10.566;2023-02-03T01:01:38;13.77;;;7.17;;
76852;SDS011;65825;52.232;10.566;2023-02-03T01:04:03;14.35;;;7.35;;
76852;SDS011;65825;52.232;10.566;2023-02-03T01:06:29;17.23;;;8.35;;
76852;SDS011;65825;52.232;10.566;2023-02-03T01:08:54;19.25;;;8.30;;
76852;SDS011;65825;52.232;10.566;2023-02-03T01:11:20;18.03;;;8.50;;
76852;SDS011;65825;52.232;10.566;2023-02-03T01:13:47;17.48;;;7.90;;
76852;SDS011;65825;52.232;10.566;2023-02-03T01:18:40;14.23;;;7.65;;
76852;SDS011;65825;52.232;10.566;2023-02-03T01:21:06;18.38;;;7.82;;
76852;SDS011;65825;52.232;10.566;2023-02-03T01:23:34;15.05;;;6.90;;
76852;SDS011;65825;52.232;10.566;2023-02-03T01:26:07;17.25;;;8.20;;
76852;SDS011;65825;52.232;10.566;2023-02-03T01:28:35;17.63;;;7.75;;
76852;SDS011;65825;52.232;10.566;2023-02-03T01:31:11;16.77;;;8.20;;
76852;SDS011;65825;52.232;10.566;2023-02-03T01:33:38;20.92;;;8.00;;
76852;SDS011;65825;52.232;10.566;2023-02-03T01:36:05;19.23;;;8.60;;
76852;SDS011;65825;52.232;10.566;2023-02-03T01:38:35;22.55;;;8.98;;
76852;SDS011;65825;52.232;10.566;2023-02-03T01:41:01;16.85;;;8.23;;
76852;SDS011;65825;52.232;10.566;2023-02-03T01:43:27;23.10;;;10.65;;
76852;SDS011;65825;52.232;10.566;2023-02-03T01:45:55;22.60;;;10.73;;
76852;SDS011;65825;52.232;10.566;2023-02-03T01:48:21;26.92;;;10.02;;
76852;SDS011;65825;52.232;10.566;2023-02-03T01:50:46;27.10;;;10.73;;
76852;SDS011;65825;52.232;10.566;2023-02-03T01:53:11;26.27;;;11.67;;
76852;SDS011;65825;52.232;10.566;2023-02-03T01:55:37;23.88;;;10.85;;
76852;SDS011;65825;52.232;10.566;2023-02-03T01:58:10;32.53;;;13.50;;
76852;SDS011;65825;52.232;10.566;2023-02-03T02:00:40;29.95;;;12.25;;
76852;SDS011;65825;52.232;10.566;2023-02-03T02:03:05;27.98;;;11.98;;
76852;SDS011;65825;52.232;10.566;2023-02-03T02:05:34;31.40;;;13.32;;
76852;SDS011;65825;52.232;10.566;2023-02-03T02:08:04;32.88;;;14.23;;
76852;SDS011;65825;52.232;10.566;2023-02-03T02:10:31;38.63;;;14.93;;
76852;SDS011;65825;52.232;10.566;2023-02-03T02:12:57;32.67;;;14.07;;
76852;SDS011;65825;52.232;10.566;2023-02-03T02:15:28;27.73;;;13.88;;
76852;SDS011;65825;52.232;10.566;2023-02-03T02:18:07;28.45;;;13.98;;
76852;SDS011;65825;52.232;10.566;2023-02-03T02:28:52;29.87;;;13.40;;
76852;SDS011;65825;52.232;10.566;2023-02-03T02:34:08;25.52;;;11.88;;
76852;SDS011;65825;52.232;10.566;2023-02-03T02:36:53;27.25;;;12.68;;
76852;SDS011;65825;52.232;10.566;2023-02-03T02:39:36;30.17;;;13.93;;
76852;SDS011;65825;52.232;10.566;2023-02-03T02:45:14;24.02;;;11.48;;
76852;SDS011;65825;52.232;10.566;2023-02-03T02:47:46;27.65;;;12.98;;
76852;SDS011;65825;52.232;10.566;2023-02-03T02:50:14;27.35;;;12.30;;
76852;SDS011;65825;52.232;10.566;2023-02-03T02:52:45;25.42;;;12.70;;
76852;SDS011;65825;52.232;10.566;2023-02-03T02:55:14;28.90;;;11.85;;
76852;SDS011;65825;52.232;10.566;2023-02-03T02:57:44;23.50;;;12.40;;
76852;SDS011;65825;52.232;10.566;2023-02-03T03:00:11;19.85;;;9.63;;
76852;SDS011;65825;52.232;10.566;2023-02-03T03:02:36;24.42;;;10.80;;
76852;SDS011;65825;52.232;10.566;2023-02-03T03:05:05;21.27;;;10.30;;
76852;SDS011;65825;52.232;10.566;2023-02-03T03:07:35;24.02;;;10.43;;
76852;SDS011;65825;52.232;10.566;2023-02-03T03:10:08;22.00;;;9.75;;
76852;SDS011;65825;52.232;10.566;2023-02-03T03:12:37;21.17;;;10.65;;
76852;SDS011;65825;52.232;10.566;2023-02-03T03:15:16;20.60;;;9.90;;
76852;SDS011;65825;52.232;10.566;2023-02-03T03:18:32;22.23;;;9.93;;
76852;SDS011;65825;52.232;10.566;2023-02-03T03:20:38;18.60;;;9.15;;
76852;SDS011;65825;52.232;10.566;2023-02-03T03:23:10;19.65;;;10.05;;
76852;SDS011;65825;52.232;10.566;2023-02-03T03:25:40;23.00;;;6.60;;
76852;SDS011;65825;52.232;10.566;2023-02-03T03:28:12;18.52;;;9.45;;
76852;SDS011;65825;52.232;10.566;2023-02-03T03:30:41;21.45;;;8.68;;
76852;SDS011;65825;52.232;10.566;2023-02-03T03:33:07;20.25;;;8.55;;
76852;SDS011;65825;52.232;10.566;2023-02-03T03:35:48;19.27;;;9.15;;
76852;SDS011;65825;52.232;10.566;2023-02-03T03:38:25;17.70;;;9.55;;
76852;SDS011;65825;52.232;10.566;2023-02-03T03:41:02;16.70;;;8.80;;
76852;SDS011;65825;52.232;10.566;2023-02-03T03:43:33;21.33;;;8.57;;
76852;SDS011;65825;52.232;10.566;2023-02-03T03:46:16;15.57;;;7.35;;
76852;SDS011;65825;52.232;10.566;2023-02-03T03:51:18;14.45;;;7.57;;
76852;SDS011;65825;52.232;10.566;2023-02-03T03:53:47;20.95;;;8.40;;
76852;SDS011;65825;52.232;10.566;2023-02-03T03:56:17;14.40;;;7.63;;
76852;SDS011;65825;52.232;10.566;2023-02-03T03:58:46;20.50;;;9.05;;
76852;SDS011;65825;52.232;10.566;2023-02-03T04:01:14;14.80;;;7.40;;
76852;SDS011;65825;52.232;10.566;2023-02-03T04:03:43;16.05;;;8.15;;
76852;SDS011;65825;52.232;10.566;2023-02-03T04:06:12;17.50;;;7.85;;
76852;SDS011;65825;52.232;10.566;2023-02-03T04:08:38;13.57;;;7.28;;
76852;SDS011;65825;52.232;10.566;2023-02-03T04:11:03;14.88;;;7.90;;
76852;SDS011;65825;52.232;10.566;2023-02-03T04:13:29;15.65;;;8.13;;
76852;SDS011;65825;52.232;10.566;2023-02-03T04:15:54;17.57;;;7.97;;
76852;SDS011;65825;52.232;10.566;2023-02-03T04:18:19;12.30;;;6.90;;
76852;SDS011;65825;52.232;10.566;2023-02-03T04:20:44;13.30;;;6.93;;
76852;SDS011;65825;52.232;10.566;2023-02-03T04:23:10;18.87;;;8.03;;
76852;SDS011;65825;52.232;10.566;2023-02-03T04:25:35;14.27;;;7.00;;
76852;SDS011;65825;52.232;10.566;2023-02-03T04:28:00;21.50;;;8.43;;
76852;SDS011;65825;52.232;10.566;2023-02-03T04:30:26;16.75;;;8.13;;
76852;SDS011;65825;52.232;10.566;2023-02-03T04:32:51;13.20;;;6.50;;
76852;SDS011;65825;52.232;10.566;2023-02-03T04:35:17;15.57;;;7.38;;
76852;SDS011;65825;52.232;10.566;2023-02-03T04:37:43;17.38;;;7.93;;
76852;SDS011;65825;52.232;10.566;2023-02-03T04:40:08;17.75;;;7.70;;
76852;SDS011;65825;52.232;10.566;2023-02-03T04:42:38;14.55;;;7.70;;
76852;SDS011;65825;52.232;10.566;2023-02-03T04:45:05;16.60;;;7.55;;
76852;SDS011;65825;52.232;10.566;2023-02-03T04:47:32;14.57;;;6.82;;
76852;SDS011;65825;52.232;10.566;2023-02-03T04:49:57;12.10;;;7.15;;
76852;SDS011;65825;52.232;10.566;2023-02-03T04:52:22;15.90;;;7.33;;
76852;SDS011;65825;52.232;10.566;2023-02-03T04:54:47;13.70;;;6.45;;
76852;SDS011;65825;52.232;10.566;2023-02-03T04:57:13;14.47;;;7.30;;
76852;SDS011;65825;52.232;10.566;2023-02-03T04:59:38;15.18;;;7.13;;
76852;SDS011;65825;52.232;10.566;2023-02-03T05:02:04;15.20;;;8.00;;
76852;SDS011;65825;52.232;10.566;2023-02-03T05:04:29;14.02;;;7.32;;
76852;SDS011;65825;52.232;10.566;2023-02-03T05:06:55;16.92;;;6.72;;
76852;SDS011;65825;52.232;10.566;2023-02-03T05:09:21;17.48;;;7.65;;
76852;SDS011;65825;52.232;10.566;2023-02-03T05:11:47;11.35;;;6.45;;
76852;SDS011;65825;52.232;10.566;2023-02-03T05:14:12;13.70;;;7.17;;
76852;SDS011;65825;52.232;10.566;2023-02-03T05:16:37;11.83;;;6.50;;
76852;SDS011;65825;52.232;10.566;2023-02-03T05:19:02;15.13;;;7.20;;
76852;SDS011;65825;52.232;10.566;2023-02-03T05:21:28;19.25;;;7.88;;
76852;SDS011;65825;52.232;10.566;2023-02-03T05:23:53;18.95;;;7.13;;
76852;SDS011;65825;52.232;10.566;2023-02-03T05:26:18;11.43;;;6.40;;
76852;SDS011;65825;52.232;10.566;2023-02-03T05:28:44;16.00;;;7.10;;
76852;SDS011;65825;52.232;10.566;2023-02-03T05:31:09;15.00;;;6.63;;
76852;SDS011;65825;52.232;10.566;2023-02-03T05:33:34;8.73;;;5.10;;
76852;SDS011;65825;52.232;10.566;2023-02-03T05:35:59;13.60;;;7.00;;
76852;SDS011;65825;52.232;10.566;2023-02-03T05:38:25;11.93;;;6.93;;
76852;SDS011;65825;52.232;10.566;2023-02-03T05:40:50;10.40;;;5.73;;
76852;SDS011;65825;52.232;10.566;2023-02-03T05:43:35;17.02;;;6.60;;
76852;SDS011;65825;52.232;10.566;2023-02-03T05:46:01;11.02;;;6.32;;
76852;SDS011;65825;52.232;10.566;2023-02-03T05:48:27;12.48;;;6.80;;
76852;SDS011;65825;52.232;10.566;2023-02-03T05:50:53;15.15;;;7.10;;
76852;SDS011;65825;52.232;10.566;2023-02-03T05:53:18;12.52;;;7.35;;
76852;SDS011;65825;52.232;10.566;2023-02-03T05:55:44;13.97;;;6.53;;
76852;SDS011;65825;52.232;10.566;2023-02-03T05:58:09;14.27;;;6.10;;
76852;SDS011;65825;52.232;10.566;2023-02-03T06:00:34;17.80;;;7.63;;
76852;SDS011;65825;52.232;10.566;2023-02-03T06:03:00;10.15;;;5.53;;
76852;SDS011;65825;52.232;10.566;2023-02-03T06:07:52;12.65;;;6.32;;
76852;SDS011;65825;52.232;10.566;2023-02-03T06:10:18;9.80;;;6.40;;
76852;SDS011;65825;52.232;10.566;2023-02-03T06:12:45;13.77;;;6.65;;
76852;SDS011;65825;52.232;10.566;2023-02-03T06:15:10;10.35;;;6.10;;
76852;SDS011;65825;52.232;10.566;2023-02-03T06:17:35;10.90;;;5.47;;
76852;SDS011;65825;52.232;10.566;2023-02-03T06:20:05;18.60;;;6.55;;
76852;SDS011;65825;52.232;10.566;2023-02-03T06:22:33;16.38;;;6.28;;
76852;SDS011;65825;52.232;10.566;2023-02-03T06:24:59;13.30;;;6.22;;
76852;SDS011;65825;52.232;10.566;2023-02-03T06:27:24;14.52;;;5.50;;
76852;SDS011;65825;52.232;10.566;2023-02-03T06:29:49;11.23;;;4.82;;
76852;SDS011;65825;52.232;10.566;2023-02-03T06:32:15;13.52;;;5.50;;
76852;SDS011;65825;52.232;10.566;2023-02-03T06:34:40;12.38;;;6.22;;
76852;SDS011;65825;52.232;10.566;2023-02-03T06:37:05;11.43;;;5.83;;
76852;SDS011;65825;52.232;10.566;2023-02-03T06:39:31;9.75;;;4.60;;
76852;SDS011;65825;52.232;10.566;2023-02-03T06:41:56;12.57;;;5.63;;
76852;SDS011;65825;52.232;10.566;2023-02-03T06:44:21;14.35;;;5.25;;
76852;SDS011;65825;52.232;10.566;2023-02-03T06:46:47;12.98;;;5.25;;
76852;SDS011;65825;52.232;10.566;2023-02-03T06:49:14;9.38;;;4.50;;
76852;SDS011;65825;52.232;10.566;2023-02-03T06:51:40;8.23;;;4.25;;
76852;SDS011;65825;52.232;10.566;2023-02-03T06:54:06;19.10;;;5.50;;
76852;SDS011;65825;52.232;10.566;2023-02-03T06:56:31;9.70;;;5.07;;
76852;SDS011;65825;52.232;10.566;2023-02-03T06:58:56;16.53;;;5.80;;
76852;SDS011;65825;52.232;10.566;2023-02-03T07:01:22;11.80;;;4.60;;
76852;SDS011;65825;52.232;10.566;2023-02-03T07:03:49;10.23;;;5.38;;
76852;SDS011;65825;52.232;10.566;2023-02-03T07:06:15;14.00;;;5.63;;
76852;SDS011;65825;52.232;10.566;2023-02-03T07:08:40;17.77;;;6.23;;
76852;SDS011;65825;52.232;10.566;2023-02-03T07:11:05;12.90;;;5.40;;
76852;SDS011;65825;52.232;10.566;2023-02-03T07:13:30;12.90;;;4.80;;
76852;SDS011;65825;52.232;10.566;2023-02-03T07:15:56;17.47;;;5.47;;
76852;SDS011;65825;52.232;10.566;2023-02-03T07:18:21;10.13;;;5.00;;
76852;SDS011;65825;52.232;10.566;2023-02-03T07:20:50;11.65;;;5.32;;
76852;SDS011;65825;52.232;10.566;2023-02-03T07:23:16;9.35;;;4.85;;
76852;SDS011;65825;52.232;10.566;2023-02-03T07:25:42;5.30;;;3.33;;
76852;SDS011;65825;52.232;10.566;2023-02-03T07:28:07;9.90;;;4.43;;
76852;SDS011;65825;52.232;10.566;2023-02-03T07:30:32;9.35;;;4.82;;
76852;SDS011;65825;52.232;10.566;2023-02-03T07:32:57;10.27;;;4.80;;
76852;SDS011;65825;52.232;10.566;2023-02-03T07:35:23;7.07;;;3.27;;
76852;SDS011;65825;52.232;10.566;2023-02-03T07:37:49;8.90;;;4.15;;
76852;SDS011;65825;52.232;10.566;2023-02-03T07:40:14;14.60;;;4.30;;
76852;SDS011;65825;52.232;10.566;2023-02-03T07:42:45;11.73;;;4.28;;
76852;SDS011;65825;52.232;10.566;2023-02-03T07:45:11;8.50;;;4.18;;
76852;SDS011;65825;52.232;10.566;2023-02-03T07:47:39;12.15;;;4.88;;
76852;SDS011;65825;52.232;10.566;2023-02-03T07:50:04;8.63;;;4.25;;
76852;SDS011;65825;52.232;10.566;2023-02-03T07:52:30;8.80;;;4.60;;
76852;SDS011;65825;52.232;10.566;2023-02-03T07:54:55;8.52;;;3.30;;
76852;SDS011;65825;52.232;10.566;2023-02-03T07:57:20;7.77;;;4.20;;
76852;SDS011;65825;52.232;10.566;2023-02-03T07:59:45;9.27;;;5.37;;
76852;SDS011;65825;52.232;10.566;2023-02-03T08:02:11;7.17;;;3.73;;
76852;SDS011;65825;52.232;10.566;2023-02-03T08:04:36;10.20;;;5.15;;
76852;SDS011;65825;52.232;10.566;2023-02-03T08:07:02;12.13;;;4.07;;
76852;SDS011;65825;52.232;10.566;2023-02-03T08:09:28;8.70;;;4.45;;
76852;SDS011;65825;52.232;10.566;2023-02-03T08:11:53;10.87;;;4.57;;
76852;SDS011;65825;52.232;10.566;2023-02-03T08:14:18;6.63;;;4.15;;
76852;SDS011;65825;52.232;10.566;2023-02-03T08:16:44;9.00;;;3.57;;
76852;SDS011;65825;52.232;10.566;2023-02-03T08:19:10;7.72;;;3.85;;
76852;SDS011;65825;52.232;10.566;2023-02-03T08:21:35;5.63;;;3.22;;
76852;SDS011;65825;52.232;10.566;2023-02-03T08:24:00;7.13;;;3.47;;
76852;SDS011;65825;52.232;10.566;2023-02-03T08:26:26;7.60;;;3.27;;
76852;SDS011;65825;52.232;10.566;2023-02-03T08:28:51;6.37;;;3.20;;
76852;SDS011;65825;52.232;10.566;2023-02-03T08:31:18;9.98;;;3.55;;
76852;SDS011;65825;52.232;10.566;2023-02-03T08:33:43;4.60;;;2.70;;
76852;SDS011;65825;52.232;10.566;2023-02-03T08:36:08;4.93;;;2.72;;
76852;SDS011;65825;52.232;10.566;2023-02-03T08:41:00;6.82;;;3.10;;
76852;SDS011;65825;52.232;10.566;2023-02-03T08:43:25;7.97;;;3.72;;
76852;SDS011;65825;52.232;10.566;2023-02-03T08:45:51;7.10;;;3.37;;
76852;SDS011;65825;52.232;10.566;2023-02-03T08:48:16;10.00;;;5.50;;
76852;SDS011;65825;52.232;10.566;2023-02-03T08:50:41;6.13;;;2.73;;
76852;SDS011;65825;52.232;10.566;2023-02-03T08:53:08;6.32;;;2.58;;
76852;SDS011;65825;52.232;10.566;2023-02-03T08:55:34;10.32;;;3.20;;
76852;SDS011;65825;52.232;10.566;2023-02-03T08:58:03;8.23;;;3.40;;
76852;SDS011;65825;52.232;10.566;2023-02-03T09:00:28;12.50;;;4.70;;
76852;SDS011;65825;52.232;10.566;2023-02-03T09:02:53;5.87;;;3.27;;
76852;SDS011;65825;52.232;10.566;2023-02-03T09:05:19;4.88;;;2.92;;
76852;SDS011;65825;52.232;10.566;2023-02-03T09:07:44;9.63;;;3.53;;
76852;SDS011;65825;52.232;10.566;2023-02-03T09:10:09;7.50;;;3.40;;
76852;SDS011;65825;52.232;10.566;2023-02-03T09:12:34;7.47;;;3.42;;
76852;SDS011;65825;52.232;10.566;2023-02-03T09:15:00;4.95;;;3.20;;
76852;SDS011;65825;52.232;10.566;2023-02-03T09:17:25;6.43;;;3.63;;
76852;SDS011;65825;52.232;10.566;2023-02-03T09:19:51;8.35;;;3.63;;
76852;SDS011;65825;52.232;10.566;2023-02-03T09:22:17;6.63;;;3.47;;
76852;SDS011;65825;52.232;10.566;2023-02-03T09:24:42;7.63;;;3.40;;
76852;SDS011;65825;52.232;10.566;2023-02-03T09:27:07;8.13;;;3.90;;
76852;SDS011;65825;52.232;10.566;2023-02-03T09:29:33;6.47;;;3.50;;
76852;SDS011;65825;52.232;10.566;2023-02-03T09:31:58;9.53;;;4.17;;
76852;SDS011;65825;52.232;10.566;2023-02-03T09:34:23;10.73;;;4.07;;
76852;SDS011;65825;52.232;10.566;2023-02-03T09:36:49;10.43;;;3.97;;
76852;SDS011;65825;52.232;10.566;2023-02-03T09:39:15;8.48;;;4.32;;
76852;SDS011;65825;52.232;10.566;2023-02-03T09:47:02;9.18;;;4.43;;
76852;SDS011;65825;52.232;10.566;2023-02-03T09:50:17;10.93;;;4.63;;
76852;SDS011;65825;52.232;10.566;2023-02-03T09:52:26;12.40;;;4.47;;
76852;SDS011;65825;52.232;10.566;2023-02-03T09:58:01;9.30;;;5.38;;
76852;SDS011;65825;52.232;10.566;2023-02-03T10:00:40;8.48;;;3.50;;
76852;SDS011;65825;52.232;10.566;2023-02-03T10:06:00;10.90;;;3.97;;
76852;SDS011;65825;52.232;10.566;2023-02-03T10:22:23;11.52;;;3.85;;
76852;SDS011;65825;52.232;10.566;2023-02-03T10:24:56;9.50;;;3.38;;
76852;SDS011;65825;52.232;10.566;2023-02-03T10:27:24;11.75;;;3.70;;
76852;SDS011;65825;52.232;10.566;2023-02-03T10:30:16;7.53;;;3.28;;
76852;SDS011;65825;52.232;10.566;2023-02-03T10:32:50;7.82;;;3.63;;
76852;SDS011;65825;52.232;10.566;2023-02-03T10:35:19;10.57;;;3.20;;
76852;SDS011;65825;52.232;10.566;2023-02-03T10:37:47;10.25;;;3.80;;
76852;SDS011;65825;52.232;10.566;2023-02-03T10:40:15;14.38;;;3.75;;
76852;SDS011;65825;52.232;10.566;2023-02-03T10:42:42;9.77;;;3.55;;
76852;SDS011;65825;52.232;10.566;2023-02-03T10:45:30;6.65;;;2.45;;
76852;SDS011;65825;52.232;10.566;2023-02-03T10:48:01;12.07;;;3.45;;
76852;SDS011;65825;52.232;10.566;2023-02-03T10:50:28;12.55;;;3.20;;
76852;SDS011;65825;52.232;10.566;2023-02-03T10:53:38;8.45;;;2.53;;
76852;SDS011;65825;52.232;10.566;2023-02-03T10:56:00;10.73;;;3.47;;
76852;SDS011;65825;52.232;10.566;2023-02-03T10:58:29;13.55;;;3.90;;
76852;SDS011;65825;52.232;10.566;2023-02-03T11:01:04;11.65;;;3.15;;
76852;SDS011;65825;52.232;10.566;2023-02-03T11:03:43;9.98;;;3.03;;
76852;SDS011;65825;52.232;10.566;2023-02-03T11:06:18;8.80;;;2.20;;
76852;SDS011;65825;52.232;10.566;2023-02-03T11:08:44;6.43;;;1.77;;
76852;SDS011;65825;52.232;10.566;2023-02-03T11:11:27;10.55;;;2.42;;
76852;SDS011;65825;52.232;10.566;2023-02-03T11:16:24;9.85;;;2.45;;
76852;SDS011;65825;52.232;10.566;2023-02-03T11:26:28;8.13;;;2.07;;
76852;SDS011;65825;52.232;10.566;2023-02-03T11:28:58;11.32;;;1.50;;
76852;SDS011;65825;52.232;10.566;2023-02-03T11:31:26;15.52;;;2.70;;
76852;SDS011;65825;52.232;10.566;2023-02-03T11:33:57;10.90;;;2.58;;
76852;SDS011;65825;52.232;10.566;2023-02-03T11:36:27;15.35;;;2.13;;
76852;SDS011;65825;52.232;10.566;2023-02-03T11:39:07;12.68;;;2.78;;
76852;SDS011;65825;52.232;10.566;2023-02-03T11:41:53;8.95;;;2.00;;
76852;SDS011;65825;52.232;10.566;2023-02-03T11:46:46;12.23;;;3.13;;
76852;SDS011;65825;52.232;10.566;2023-02-03T11:52:26;13.15;;;2.45;;
76852;SDS011;65825;52.232;10.566;2023-02-03T11:55:09;9.15;;;3.03;;
76852;SDS011;65825;52.232;10.566;2023-02-03T12:00:39;13.52;;;2.63;;
76852;SDS011;65825;52.232;10.566;2023-02-03T12:06:01;10.90;;;2.87;;
76852;SDS011;65825;52.232;10.566;2023-02-03T12:08:44;14.05;;;2.97;;
76852;SDS011;65825;52.232;10.566;2023-02-03T12:14:13;17.33;;;3.47;;
76852;SDS011;65825;52.232;10.566;2023-02-03T12:20:17;14.48;;;2.90;;
76852;SDS011;65825;52.232;10.566;2023-02-03T12:23:03;21.65;;;3.33;;
76852;SDS011;65825;52.232;10.566;2023-02-03T12:25:52;14.25;;;3.03;;
76852;SDS011;65825;52.232;10.566;2023-02-03T12:36:49;14.32;;;2.80;;
76852;SDS011;65825;52.232;10.566;2023-02-03T12:39:28;12.90;;;3.10;;
76852;SDS011;65825;52.232;10.566;2023-02-03T12:49:53;15.93;;;2.40;;
76852;SDS011;65825;52.232;10.566;2023-02-03T12:52:28;16.90;;;2.50;;
76852;SDS011;65825;52.232;10.566;2023-02-03T12:57:51;24.60;;;3.00;;
76852;SDS011;65825;52.232;10.566;2023-02-03T13:00:29;25.45;;;3.75;;
76852;SDS011;65825;52.232;10.566;2023-02-03T13:08:43;15.70;;;3.47;;
76852;SDS011;65825;52.232;10.566;2023-02-03T13:17:00;14.88;;;2.25;;
76852;SDS011;65825;52.232;10.566;2023-02-03T13:19:36;14.90;;;3.15;;
76852;SDS011;65825;52.232;10.566;2023-02-03T13:22:10;20.35;;;2.72;;
76852;SDS011;65825;52.232;10.566;2023-02-03T13:24:37;11.07;;;2.60;;
76852;SDS011;65825;52.232;10.566;2023-02-03T13:27:13;17.85;;;2.90;;
76852;SDS011;65825;52.232;10.566;2023-02-03T13:30:13;18.45;;;2.35;;
76852;SDS011;65825;52.232;10.566;2023-02-03T13:36:02;12.25;;;2.42;;
76852;SDS011;65825;52.232;10.566;2023-02-03T13:38:53;13.57;;;2.72;;
76852;SDS011;65825;52.232;10.566;2023-02-03T13:41:46;16.92;;;2.50;;
76852;SDS011;65825;52.232;10.566;2023-02-03T13:44:20;13.70;;;2.75;;
76852;SDS011;65825;52.232;10.566;2023-02-03T13:46:52;14.32;;;2.30;;
76852;SDS011;65825;52.232;10.566;2023-02-03T13:49:26;17.75;;;2.75;;
76852;SDS011;65825;52.232;10.566;2023-02-03T13:51:55;22.40;;;3.83;;
76852;SDS011;65825;52.232;10.566;2023-02-03T13:59:45;14.73;;;2.70;;
76852;SDS011;65825;52.232;10.566;2023-02-03T14:22:52;21.20;;;3.38;;
76852;SDS011;65825;52.232;10.566;2023-02-03T14:25:22;15.48;;;2.75;;
76852;SDS011;65825;52.232;10.566;2023-02-03T14:28:02;16.20;;;3.40;;
76852;SDS011;65825;52.232;10.566;2023-02-03T14:30:31;16.38;;;2.28;;
76852;SDS011;65825;52.232;10.566;2023-02-03T14:32:57;18.33;;;2.80;;
76852;SDS011;65825;52.232;10.566;2023-02-03T14:38:10;13.93;;;2.70;;
76852;SDS011;65825;52.232;10.566;2023-02-03T14:40:49;19.15;;;2.90;;
76852;SDS011;65825;52.232;10.566;2023-02-03T14:43:42;15.02;;;2.55;;
76852;SDS011;65825;52.232;10.566;2023-02-03T14:46:24;10.05;;;2.45;;
76852;SDS011;65825;52.232;10.566;2023-02-03T14:49:04;12.50;;;2.60;;
76852;SDS011;65825;52.232;10.566;2023-02-03T14:57:52;13.02;;;2.03;;
76852;SDS011;65825;52.232;10.566;2023-02-03T15:05:34;9.40;;;2.63;;
76852;SDS011;65825;52.232;10.566;2023-02-03T15:08:02;17.20;;;3.00;;
76852;SDS011;65825;52.232;10.566;2023-02-03T15:10:28;16.48;;;2.65;;
76852;SDS011;65825;52.232;10.566;2023-02-03T15:13:25;17.33;;;3.10;;
76852;SDS011;65825;52.232;10.566;2023-02-03T15:15:52;11.27;;;2.38;;
76852;SDS011;65825;52.232;10.566;2023-02-03T15:18:21;12.77;;;2.53;;
76852;SDS011;65825;52.232;10.566;2023-02-03T15:29:15;15.65;;;2.85;;
76852;SDS011;65825;52.232;10.566;2023-02-03T15:31:49;12.38;;;2.10;;
76852;SDS011;65825;52.232;10.566;2023-02-03T15:34:26;19.52;;;2.55;;
76852;SDS011;65825;52.232;10.566;2023-02-03T15:36:59;16.42;;;2.88;;
76852;SDS011;65825;52.232;10.566;2023-02-03T15:40:12;17.60;;;3.13;;
76852;SDS011;65825;52.232;10.566;2023-02-03T15:42:38;20.73;;;2.75;;
76852;SDS011;65825;52.232;10.566;2023-02-03T15:45:19;16.15;;;3.13;;
76852;SDS011;65825;52.232;10.566;2023-02-03T15:47:52;20.63;;;2.80;;
76852;SDS011;65825;52.232;10.566;2023-02-03T15:50:31;12.57;;;3.03;;
76852;SDS011;65825;52.232;10.566;2023-02-03T15:53:03;15.68;;;2.20;;
76852;SDS011;65825;52.232;10.566;2023-02-03T15:55:41;14.00;;;2.92;;
76852;SDS011;65825;52.232;10.566;2023-02-03T16:01:09;25.95;;;3.22;;
76852;SDS011;65825;52.232;10.566;2023-02-03T16:03:40;12.90;;;2.50;;
76852;SDS011;65825;52.232;10.566;2023-02-03T16:08:48;16.35;;;3.08;;
76852;SDS011;65825;52.232;10.566;2023-02-03T16:13:49;19.83;;;2.50;;
76852;SDS011;65825;52.232;10.566;2023-02-03T16:18:58;9.73;;;2.80;;
76852;SDS011;65825;52.232;10.566;2023-02-03T16:24:00;12.80;;;2.22;;
76852;SDS011;65825;52.232;10.566;2023-02-03T16:26:27;18.33;;;2.95;;
76852;SDS011;65825;52.232;10.566;2023-02-03T16:31:47;18.65;;;2.42;;
76852;SDS011;65825;52.232;10.566;2023-02-03T16:34:31;10.50;;;2.33;;
76852;SDS011;65825;52.232;10.566;2023-02-03T16:37:22;17.95;;;3.03;;
76852;SDS011;65825;52.232;10.566;2023-02-03T16:40:16;22.27;;;2.70;;
76852;SDS011;65825;52.232;10.566;2023-02-03T16:43:05;15.52;;;2.05;;
76852;SDS011;65825;52.232;10.566;2023-02-03T16:45:54;15.27;;;3.10;;
76852;SDS011;65825;52.232;10.566;2023-02-03T16:48:39;16.65;;;3.88;;
76852;SDS011;65825;52.232;10.566;2023-02-03T16:51:23;23.73;;;3.72;;
76852;SDS011;65825;52.232;10.566;2023-02-03T16:53:50;26.80;;;3.05;;
76852;SDS011;65825;52.232;10.566;2023-02-03T16:56:15;21.13;;;2.70;;
76852;SDS011;65825;52.232;10.566;2023-02-03T16:58:42;17.73;;;2.67;;
76852;SDS011;65825;52.232;10.566;2023-02-03T17:01:09;15.75;;;2.83;;
76852;SDS011;65825;52.232;10.566;2023-02-03T17:03:35;9.65;;;2.00;;
76852;SDS011;65825;52.232;10.566;2023-02-03T17:06:06;15.93;;;2.90;;
76852;SDS011;65825;52.232;10.566;2023-02-03T17:08:32;16.65;;;3.15;;
76852;SDS011;65825;52.232;10.566;2023-02-03T17:11:02;15.50;;;2.83;;
76852;SDS011;65825;52.232;10.566;2023-02-03T17:13:28;14.60;;;2.67;;
76852;SDS011;65825;52.232;10.566;2023-02-03T17:15:54;30.25;;;3.40;;
76852;SDS011;65825;52.232;10.566;2023-02-03T17:18:19;17.75;;;2.80;;
76852;SDS011;65825;52.232;10.566;2023-02-03T17:20:45;20.40;;;3.22;;
76852;SDS011;65825;52.232;10.566;2023-02-03T17:23:11;19.00;;;3.33;;
76852;SDS011;65825;52.232;10.566;2023-02-03T17:25:37;20.08;;;3.15;;
76852;SDS011;65825;52.232;10.566;2023-02-03T17:28:07;20.75;;;3.22;;
76852;SDS011;65825;52.232;10.566;2023-02-03T17:30:33;24.90;;;2.83;;
76852;SDS011;65825;52.232;10.566;2023-02-03T17:33:00;16.27;;;2.90;;